Hasle, Denmark
Current Conditions -  °F | °C
As of 9:20 AM on Saturday 20 Dec 2014 (Local Time) from EKRN Reporting Station
Broken Clouds Broken Clouds  
Wind Chill: 34°   Ceiling: 1900
Heat Index: 43°   Visibility: 6mi
Dew Point: 39°   Wind: 23mph
Humidity: 87%   Direction: 260°W
Pressure: 29.5"   Gusts: NA
Location:  55.18°N, 14.71°E
Report Text: EKRN 200820Z AUTO 26020KT 9999NDV BKN019/// BKN130///06/04 Q0999
Loading
Personal Weather Stations






























Interactive Weather Map New forecast layout! Learn more

10-Day Weather Forecast

Advertisements
Track Severe Weather on mobile